Карточка аэропорта URRP

Внимание!
Информация на этой странице в стадии наполнения.
Если вы не увидели какой-то информации, или заметили неточность - пожалуйста сообщите нам!
Спасибо!
Команда RU-STAFF
Название аэропортаПлатов
Название аэропорта (англ.)Platov
Превышение282 ft. (86 m.)
Координаты47°29.634', 39°55.482'
Высота перехода3500 ft
Эшелон переходаFL50 (QNH >= 996); FL60 (QNH < 996)
Коды ответчика1001-1017
Зона ОрВДРостов-на-Дону РПИ (URRV)
Данные METARURRP 142200Z 15002MPS CAVOK 21/12 Q1008 R05/CLRD70 NOSIG RMK QFE751/1002
Проноз погоды (TAF)URRP 141956Z 1421/1521 08003G12MPS 9999 SCT016 SCT030CB TX32/1512Z TN20/1501Z BECMG 1505/1506 13005G12MPS TEMPO 1506/1515 16008G17MPS 6000 -TSRA FEW005 BKN020CB TEMPO 1515/1521 16006G14MPS 6000 -SHRA FEW006 BKN020CB
NOTAMshow/hide NOTAM
AWOS   TABLE

Информация о ВПП

ВПП Длина ВПП (м.) Покрытие Курс ВПП Частота ILS
053900Цементобетон46111.5
233900Цементобетон226110.9

Диспетчерские позиции

Позывной Наименование органа УВД Частота
URRP_APPПлатов-подход128.2
URRP_DELПлатов-деливери127.1
URRP_R_APPПлатов - Круг121.2
URRP_TWRПлатов-Вышка119.7
URRP_GNDПлатов - руление119.0



Спутниковое изображение